Time;durP1;ratioP1;P1;durP2;ratioP2;P2;SDS_P1;SDS_P2;PMS_P1;PMS_P2;Temp;Humidity;BMP_temperature;BMP_pressure;BME280_temperature;BME280_humidity;BME280_pressure;Samples;Min_cycle;Max_cycle;Signal;HPM_P1;HPM_P2
2022/05/15 00:04:14;;;;;;;11.35;5.20;;;;;;;13.37;58.32;100984.78;8871617;33;20151;-76
2022/05/15 00:09:17;;;;;;;9.18;4.38;;;;;;;13.26;58.32;100972.16;8870284;33;20157;-76
2022/05/15 00:14:20;;;;;;;9.73;3.92;;;;;;;13.21;58.35;100969.81;8845575;33;20990;-76
2022/05/15 00:19:25;;;;;;;10.30;4.60;;;;;;;13.26;58.27;100974.84;8870276;33;20233;-76
2022/05/15 00:24:29;;;;;;;11.05;4.18;;;;;;;13.22;58.50;100966.16;8850467;33;20157;-76
2022/05/15 00:29:32;;;;;;;11.07;4.47;;;;;;;13.23;58.48;100967.00;8870076;33;20153;-75
2022/05/15 00:34:36;;;;;;;12.00;4.75;;;;;;;13.15;58.50;100978.44;8845651;33;20168;-76
2022/05/15 00:39:39;;;;;;;7.18;4.10;;;;;;;13.05;58.94;100970.25;8870325;33;20146;-76
2022/05/15 00:44:42;;;;;;;9.13;4.70;;;;;;;13.04;58.75;100965.81;8830542;33;20166;-74
2022/05/15 00:49:47;;;;;;;13.68;5.28;;;;;;;13.01;58.86;100959.84;8869635;33;20150;-75
2022/05/15 00:54:56;;;;;;;10.25;4.45;;;;;;;12.87;59.40;100954.72;8841620;33;20315;-77
2022/05/15 01:00:04;;;;;;;12.88;4.90;;;;;;;12.85;59.51;100956.69;8869510;33;20131;-76
2022/05/15 01:05:12;;;;;;;8.50;4.93;;;;;;;12.85;59.42;100957.53;8868524;33;20187;-76
2022/05/15 01:10:16;;;;;;;14.43;5.63;;;;;;;12.78;59.37;100953.59;8842569;33;20176;-75
2022/05/15 01:15:24;;;;;;;13.63;5.88;;;;;;;12.69;59.94;100944.44;8867482;33;20149;-76
2022/05/15 01:20:34;;;;;;;14.52;5.68;;;;;;;12.64;59.97;100948.50;8853817;33;20803;-76
2022/05/15 01:25:39;;;;;;;11.63;5.50;;;;;;;12.59;60.05;100947.03;8852384;33;20458;-76
2022/05/15 01:30:47;;;;;;;11.00;5.28;;;;;;;12.47;60.10;100942.63;8852959;33;20170;-76
2022/05/15 01:35:52;;;;;;;10.43;4.97;;;;;;;12.32;60.49;100949.25;8841932;33;20143;-76
2022/05/15 01:40:57;;;;;;;17.60;5.35;;;;;;;12.35;60.64;100951.69;8843742;33;20155;-76
2022/05/15 01:46:00;;;;;;;11.55;5.50;;;;;;;12.32;60.66;100951.94;8826963;33;20181;-75
2022/05/15 01:51:04;;;;;;;13.27;4.88;;;;;;;12.28;61.09;100943.22;8844037;33;20153;-76
2022/05/15 01:56:09;;;;;;;14.85;5.40;;;;;;;12.20;60.94;100940.25;8842567;33;20147;-76
2022/05/15 02:01:12;;;;;;;15.23;5.53;;;;;;;12.14;61.14;100946.13;8836831;33;20141;-76
2022/05/15 02:06:17;;;;;;;11.52;4.82;;;;;;;12.08;61.05;100947.47;8843900;33;20370;-75
2022/05/15 02:11:22;;;;;;;11.27;4.72;;;;;;;11.95;61.40;100946.72;8864466;33;20205;-76
2022/05/15 02:16:27;;;;;;;11.50;5.63;;;;;;;11.82;61.78;100951.34;8843919;28;20230;-74
2022/05/15 02:21:30;;;;;;;12.50;5.32;;;;;;;11.80;61.87;100947.94;8696202;33;20458;-74
2022/05/15 02:26:37;;;;;;;12.10;6.80;;;;;;;11.65;62.25;100956.19;8687664;33;20153;-74
2022/05/15 02:31:40;;;;;;;13.27;5.38;;;;;;;11.58;62.57;100951.41;8717807;33;20152;-74
2022/05/15 02:36:43;;;;;;;10.13;5.97;;;;;;;11.57;62.78;100947.84;8689310;33;20148;-74
2022/05/15 02:41:49;;;;;;;11.82;5.35;;;;;;;11.48;62.86;100945.84;8689600;33;20156;-74
2022/05/15 02:46:52;;;;;;;13.18;5.50;;;;;;;11.43;62.58;100956.09;8700268;33;20141;-74
2022/05/15 02:51:56;;;;;;;12.38;5.80;;;;;;;11.28;63.21;100955.44;8666556;33;20737;-74
2022/05/15 02:57:00;;;;;;;16.52;6.38;;;;;;;11.31;63.68;100948.97;8666155;33;20149;-73
2022/05/15 03:02:04;;;;;;;12.88;5.57;;;;;;;11.20;63.39;100953.31;8709954;33;20793;-73
2022/05/15 03:07:08;;;;;;;16.85;6.63;;;;;;;11.01;64.24;100959.16;8690292;33;20686;-73
2022/05/15 03:12:12;;;;;;;14.40;6.68;;;;;;;10.80;65.01;100952.69;8676164;33;20497;-73
2022/05/15 03:17:17;;;;;;;13.00;6.40;;;;;;;10.82;65.21;100959.66;8713689;33;20756;-73
2022/05/15 03:22:20;;;;;;;11.57;6.95;;;;;;;10.71;65.39;100964.97;8692905;33;20152;-73
2022/05/15 03:27:25;;;;;;;12.15;6.55;;;;;;;10.43;66.12;100954.50;8712196;33;20152;-73
2022/05/15 03:32:28;;;;;;;14.90;6.00;;;;;;;10.68;66.31;100957.13;8707197;33;20167;-73
2022/05/15 03:37:32;;;;;;;14.27;6.50;;;;;;;10.63;65.84;100959.28;8688948;33;21076;-74
2022/05/15 03:42:37;;;;;;;11.38;5.80;;;;;;;10.65;66.25;100965.41;8710955;33;20148;-73
2022/05/15 03:47:46;;;;;;;11.57;6.68;;;;;;;10.74;65.73;100964.72;8715307;33;20206;-73
2022/05/15 03:52:49;;;;;;;13.10;6.70;;;;;;;10.65;65.86;100969.94;8679189;33;20244;-74
2022/05/15 03:57:55;;;;;;;16.08;6.32;;;;;;;10.64;66.23;100960.13;8684835;33;20155;-73
2022/05/15 04:03:00;;;;;;;12.32;6.22;;;;;;;10.71;66.16;100964.97;8740600;33;20659;-73
2022/05/15 04:08:04;;;;;;;12.07;6.45;;;;;;;10.38;66.92;100974.47;8698553;33;20259;-72
2022/05/15 04:13:09;;;;;;;17.27;6.75;;;;;;;10.59;67.22;100979.28;8659232;33;20832;-72
2022/05/15 04:18:13;;;;;;;252.23;76.15;;;;;;;10.65;66.64;100984.22;8634653;34;20154;-72
2022/05/15 04:23:16;;;;;;;110.22;79.18;;;;;;;10.76;66.71;100983.44;8670143;33;20215;-73
2022/05/15 04:28:21;;;;;;;13.00;7.07;;;;;;;10.87;66.23;100980.84;8657919;33;20153;-72
2022/05/15 04:33:24;;;;;;;11.23;7.22;;;;;;;10.98;66.12;100980.06;8644357;33;20164;-73
2022/05/15 04:38:28;;;;;;;20.30;18.30;;;;;;;11.03;65.98;100983.25;8647188;33;20419;-73
2022/05/15 04:43:32;;;;;;;1182.95;564.83;;;;;;;11.03;65.66;100984.13;8662179;33;20684;-73
2022/05/15 04:48:36;;;;;;;12.60;7.32;;;;;;;11.01;65.56;100987.88;8635832;34;20478;-73
2022/05/15 04:53:39;;;;;;;13.48;6.55;;;;;;;10.96;65.92;100995.41;8687674;33;20620;-73
2022/05/15 04:58:44;;;;;;;69.55;40.35;;;;;;;11.14;65.64;101004.03;8747814;33;20612;-73
2022/05/15 05:03:47;;;;;;;62.22;23.35;;;;;;;11.17;65.61;100998.41;8737179;33;20148;-73
2022/05/15 05:08:51;;;;;;;17.70;7.53;;;;;;;11.14;65.61;100986.06;8714695;33;20159;-73
2022/05/15 05:13:56;;;;;;;10.07;6.57;;;;;;;11.34;65.07;100989.94;8693805;33;20160;-73
2022/05/15 05:18:59;;;;;;;15.00;13.43;;;;;;;11.51;65.12;100988.66;8717866;33;20480;-73
2022/05/15 05:24:02;;;;;;;80.05;21.42;;;;;;;11.55;64.57;100975.84;8698803;33;20645;-73
2022/05/15 05:29:07;;;;;;;11.32;9.80;;;;;;;11.36;65.11;100976.38;8696878;33;20259;-73
2022/05/15 05:34:10;;;;;;;1120.03;612.75;;;;;;;11.51;65.17;100991.34;8708684;33;20338;-73
2022/05/15 05:39:13;;;;;;;108.65;103.88;;;;;;;11.61;64.78;100995.06;8716395;33;20156;-73
2022/05/15 05:44:17;;;;;;;387.08;367.00;;;;;;;11.80;64.21;100996.38;8730061;33;20294;-73
2022/05/15 05:49:20;;;;;;;213.95;204.55;;;;;;;12.01;63.58;100993.84;8735440;33;20251;-73
2022/05/15 05:54:23;;;;;;;814.25;753.80;;;;;;;12.07;63.36;100996.09;8716373;33;20183;-73
2022/05/15 05:59:28;;;;;;;1140.93;999.90;;;;;;;12.16;62.74;100990.81;8738020;33;20147;-73
2022/05/15 06:04:41;;;;;;;91.50;87.63;;;;;;;12.41;62.77;100997.00;8734452;33;20252;-73
2022/05/15 06:09:47;;;;;;;1999.90;999.90;;;;;;;12.65;61.74;100999.59;8745608;33;20641;-73
2022/05/15 06:14:53;;;;;;;1999.90;999.90;;;;;;;13.21;63.23;100993.25;8715771;33;20142;-72
2022/05/15 06:19:57;;;;;;;1999.90;999.90;;;;;;;13.66;62.07;100991.28;8728406;33;20140;-73
2022/05/15 06:25:00;;;;;;;1999.90;999.90;;;;;;;14.07;61.23;100994.13;8719449;33;20246;-73
2022/05/15 06:30:07;;;;;;;1999.90;999.90;;;;;;;14.64;61.00;100991.91;8734229;33;20151;-73
2022/05/15 06:35:13;;;;;;;1999.90;999.90;;;;;;;14.87;58.44;100979.03;8743524;33;20243;-73
2022/05/15 06:40:16;;;;;;;1999.90;999.90;;;;;;;14.96;57.31;100984.47;8717983;33;20260;-74
2022/05/15 06:45:21;;;;;;;1999.90;999.90;;;;;;;15.16;56.90;100984.50;8731794;33;20164;-75
2022/05/15 06:50:25;;;;;;;1999.90;999.90;;;;;;;15.12;56.59;100978.53;8708931;33;20969;-74
2022/05/15 06:55:28;;;;;;;1999.90;999.90;;;;;;;15.36;56.16;100980.88;8708256;33;20578;-74
2022/05/15 07:00:32;;;;;;;1999.90;999.90;;;;;;;15.93;52.89;100987.28;8722103;33;20989;-74
2022/05/15 07:05:36;;;;;;;1999.90;999.90;;;;;;;16.11;52.67;100981.94;8696588;33;20234;-73
2022/05/15 07:10:39;;;;;;;1999.90;999.90;;;;;;;15.91;52.41;100993.84;8747909;33;20439;-73
2022/05/15 07:15:43;;;;;;;1999.90;999.90;;;;;;;16.40;52.41;100978.34;8713829;33;20483;-73
2022/05/15 07:20:46;;;;;;;1999.90;999.90;;;;;;;16.49;51.10;100992.88;8720676;33;20144;-73
2022/05/15 07:25:50;;;;;;;1999.90;999.90;;;;;;;16.54;50.78;100990.56;8748235;33;20193;-73
2022/05/15 07:30:56;;;;;;;1999.90;999.90;;;;;;;16.85;51.29;100990.28;8750463;33;20163;-73
2022/05/15 07:36:00;;;;;;;1999.90;999.90;;;;;;;17.15;50.14;100987.28;8738715;33;20148;-73
2022/05/15 07:41:03;;;;;;;1999.90;999.90;;;;;;;17.43;48.26;100989.94;8731157;33;20231;-73
2022/05/15 07:46:09;;;;;;;1999.90;999.90;;;;;;;17.33;48.38;100986.44;8738784;33;20450;-73
2022/05/15 07:51:13;;;;;;;1999.90;999.90;;;;;;;17.66;48.30;100984.88;8749881;33;20132;-73
2022/05/15 07:56:16;;;;;;;1999.90;999.90;;;;;;;17.82;48.97;100984.19;8750344;33;20246;-73
2022/05/15 08:01:20;;;;;;;1999.90;999.90;;;;;;;18.47;47.74;100972.94;8746566;33;20649;-73
2022/05/15 08:11:44;;;;;;;1999.90;999.90;;;;;;;19.01;46.12;100966.22;8735017;33;20136;-73
2022/05/15 08:16:48;;;;;;;1999.90;999.90;;;;;;;19.21;45.36;100960.47;8741138;33;20891;-73
2022/05/15 08:27:12;;;;;;;1999.90;999.90;;;;;;;19.67;45.10;100956.31;8743238;33;20271;-75
2022/05/15 08:32:17;;;;;;;1999.90;999.90;;;;;;;19.88;44.16;100949.47;8744766;33;20456;-74
2022/05/15 08:37:20;;;;;;;1999.90;999.90;;;;;;;19.91;45.52;100954.56;8673336;33;20309;-74
2022/05/15 08:42:31;;;;;;;1999.90;999.90;;;;;;;19.89;43.67;100941.13;8722369;33;20283;-74
2022/05/15 08:47:40;;;;;;;1999.90;999.90;;;;;;;20.56;44.79;100946.28;8690649;33;20153;-74
2022/05/15 08:52:54;;;;;;;1999.90;999.90;;;;;;;20.59;43.26;100950.53;8704280;33;20170;-75
2022/05/15 08:58:02;;;;;;;1999.90;999.90;;;;;;;21.09;42.96;100934.78;8693705;33;20876;-75
2022/05/15 09:03:15;;;;;;;1999.90;999.90;;;;;;;21.40;42.42;100942.94;8737913;33;20661;-74
2022/05/15 09:09:10;;;;;;;1999.90;999.90;;;;;;;21.59;40.31;100947.94;8691808;33;20278;-75
2022/05/15 09:14:16;;;;;;;1999.90;999.90;;;;;;;22.20;38.39;100938.84;8699198;33;20149;-75
2022/05/15 09:19:21;;;;;;;1999.90;999.90;;;;;;;22.13;37.58;100946.09;8715273;33;20462;-75
2022/05/15 09:24:33;;;;;;;1999.90;999.90;;;;;;;22.01;36.61;100951.19;8710606;33;21115;-74
2022/05/15 09:29:36;;;;;;;1999.90;999.90;;;;;;;21.75;36.98;100952.44;8694531;33;20716;-75
2022/05/15 09:34:44;;;;;;;1999.90;999.90;;;;;;;22.39;34.69;100959.34;8708036;33;20164;-76
2022/05/15 09:39:49;;;;;;;1999.90;999.90;;;;;;;22.50;35.70;100947.94;8728553;33;20963;-73
2022/05/15 09:44:52;;;;;;;1999.90;999.90;;;;;;;22.63;35.41;100945.38;8698401;33;20202;-74
2022/05/15 09:49:56;;;;;;;1999.90;999.90;;;;;;;22.50;36.43;100946.03;8726187;33;20291;-74
2022/05/15 09:55:12;;;;;;;1999.90;999.90;;;;;;;22.88;35.71;100936.84;8689959;33;20134;-73
2022/05/15 10:00:21;;;;;;;1999.90;999.90;;;;;;;22.39;35.12;100943.75;8741958;33;20494;-73
2022/05/15 10:05:28;;;;;;;1999.90;999.90;;;;;;;22.68;34.79;100942.94;8694947;33;20226;-74
2022/05/15 10:10:36;;;;;;;1999.90;999.90;;;;;;;22.82;34.35;100932.13;8740000;33;20148;-73
2022/05/15 10:15:45;;;;;;;1999.90;999.90;;;;;;;22.97;34.88;100922.00;8735898;33;20155;-74
2022/05/15 10:20:52;;;;;;;1999.90;999.90;;;;;;;22.51;34.85;100925.00;8711003;33;20552;-74
2022/05/15 10:25:59;;;;;;;1999.90;999.90;;;;;;;22.91;35.00;100920.03;8732785;33;20168;-74
2022/05/15 10:31:07;;;;;;;1999.90;999.90;;;;;;;22.96;34.88;100917.56;8702135;33;20267;-73
2022/05/15 10:36:29;;;;;;;1999.90;999.90;;;;;;;23.60;34.28;100914.00;8699898;33;20178;-73
2022/05/15 10:41:44;;;;;;;1999.90;999.90;;;;;;;23.95;32.01;100904.00;8749155;33;20242;-74
2022/05/15 10:46:53;;;;;;;1999.90;999.90;;;;;;;23.82;33.00;100901.16;8715508;33;20141;-74
2022/05/15 10:52:07;;;;;;;1999.90;999.90;;;;;;;24.54;32.17;100905.41;8722467;33;20147;-75
2022/05/15 10:57:29;;;;;;;1999.90;999.90;;;;;;;24.81;31.73;100897.28;8746337;33;21017;-74
2022/05/15 11:03:29;;;;;;;1999.90;999.90;;;;;;;25.17;31.92;100891.47;8750892;33;20179;-74
2022/05/15 11:08:41;;;;;;;1999.90;999.90;;;;;;;24.92;30.91;100885.69;8718867;33;20469;-74
2022/05/15 11:13:54;;;;;;;1999.90;999.90;;;;;;;24.84;28.79;100885.88;8734273;33;20246;-74
2022/05/15 11:19:21;;;;;;;1999.90;999.90;;;;;;;25.28;30.85;100870.78;8740188;33;20144;-74
2022/05/15 11:24:38;;;;;;;1999.90;999.90;;;;;;;25.63;29.59;100872.28;8744688;33;20242;-74
2022/05/15 11:29:47;;;;;;;1999.90;999.90;;;;;;;25.79;27.86;100856.44;8734835;33;20679;-74
2022/05/15 11:35:06;;;;;;;1999.90;999.90;;;;;;;24.91;28.20;100848.28;8720152;33;20129;-74
2022/05/15 11:40:13;;;;;;;1999.90;999.90;;;;;;;25.29;28.78;100845.00;8712131;33;20648;-75
2022/05/15 11:45:49;;;;;;;1999.90;999.90;;;;;;;26.12;27.49;100836.25;8751015;33;20148;-74
2022/05/15 11:51:00;;;;;;;1999.90;999.90;;;;;;;25.80;27.85;100839.69;8697851;33;20274;-75
2022/05/15 11:56:21;;;;;;;1999.90;999.90;;;;;;;26.62;26.81;100811.69;8719493;33;20145;-75
2022/05/15 12:01:48;;;;;;;1999.90;999.90;;;;;;;26.38;26.59;100803.09;8695501;33;20156;-74
2022/05/15 12:07:50;;;;;;;1999.90;999.90;;;;;;;25.96;29.45;100804.53;8704451;33;20242;-75
2022/05/15 12:13:12;;;;;;;1999.90;999.90;;;;;;;26.69;28.39;100795.97;8698670;33;20542;-74
2022/05/15 12:18:31;;;;;;;1999.90;999.90;;;;;;;26.94;28.86;100785.03;8718564;33;20535;-73
2022/05/15 12:23:38;;;;;;;1999.90;999.90;;;;;;;26.85;27.64;100789.97;8722502;33;20192;-73
2022/05/15 12:28:56;;;;;;;1999.90;999.90;;;;;;;27.69;27.52;100785.00;8731694;33;20147;-75
2022/05/15 12:34:08;;;;;;;1999.90;999.90;;;;;;;27.51;27.31;100780.31;8693538;33;20140;-74
2022/05/15 12:39:17;;;;;;;1999.90;999.90;;;;;;;27.26;28.26;100780.31;8711811;33;20187;-75
2022/05/15 12:44:34;;;;;;;1999.90;999.90;;;;;;;27.40;28.93;100783.84;8692227;33;20652;-74
2022/05/15 12:49:42;;;;;;;1999.90;999.90;;;;;;;27.87;27.94;100775.06;8736607;33;20941;-74
2022/05/15 12:54:58;;;;;;;1999.90;999.90;;;;;;;27.65;27.15;100775.50;8744513;33;20499;-75
2022/05/15 13:00:13;;;;;;;1999.90;999.90;;;;;;;27.99;27.71;100767.72;8741623;33;20556;-74
2022/05/15 13:05:24;;;;;;;1999.90;999.90;;;;;;;27.21;27.22;100765.50;8697653;33;20148;-74
2022/05/15 13:10:30;;;;;;;1999.90;999.90;;;;;;;27.20;26.35;100752.78;8705820;33;20167;-75
2022/05/15 13:15:35;;;;;;;1999.90;999.90;;;;;;;27.35;27.98;100745.84;8715235;33;20681;-74
2022/05/15 13:20:41;;;;;;;1999.90;999.90;;;;;;;27.58;27.31;100741.63;8726277;33;20261;-75
2022/05/15 13:25:49;;;;;;;1999.90;999.90;;;;;;;27.69;26.85;100738.09;8693279;33;20187;-75
2022/05/15 13:30:54;;;;;;;1999.90;999.90;;;;;;;27.64;26.08;100731.59;8692400;33;20527;-74
2022/05/15 13:36:00;;;;;;;1999.90;999.90;;;;;;;27.22;26.50;100725.84;8725848;33;20157;-74
2022/05/15 13:46:34;;;;;;;1999.90;999.90;;;;;;;28.17;26.88;100718.00;8719584;33;20148;-74
2022/05/15 13:51:43;;;;;;;1999.90;999.90;;;;;;;28.35;27.46;100724.56;8713265;33;20525;-74
2022/05/15 13:56:49;;;;;;;1999.90;999.90;;;;;;;27.82;27.18;100717.78;8692358;33;20148;-74
2022/05/15 14:02:12;;;;;;;1999.90;999.90;;;;;;;28.13;26.24;100707.66;8731782;33;20144;-74
2022/05/15 14:07:29;;;;;;;1999.90;999.90;;;;;;;28.16;25.34;100702.50;8735005;33;20152;-74
2022/05/15 14:12:42;;;;;;;1999.90;999.90;;;;;;;28.53;26.07;100698.84;8692739;33;20156;-74
2022/05/15 14:17:50;;;;;;;1999.90;999.90;;;;;;;28.40;26.05;100702.59;8693522;33;20438;-75
2022/05/15 14:22:53;;;;;;;1999.90;999.90;;;;;;;28.63;26.16;100688.91;8705976;33;20152;-74
2022/05/15 14:27:57;;;;;;;1999.90;999.90;;;;;;;28.86;25.45;100667.88;8721058;33;20159;-75
2022/05/15 14:33:06;;;;;;;1999.90;999.90;;;;;;;29.09;24.97;100675.38;8738065;33;20246;-73
2022/05/15 14:38:10;;;;;;;1999.90;999.90;;;;;;;28.35;26.14;100663.78;8747158;33;20238;-75
2022/05/15 14:43:18;;;;;;;1999.90;999.90;;;;;;;28.22;26.05;100660.16;8745084;33;20152;-75
2022/05/15 14:48:25;;;;;;;1999.90;999.90;;;;;;;28.18;25.68;100658.94;8701993;33;20176;-74
2022/05/15 14:53:32;;;;;;;1999.90;999.90;;;;;;;28.12;25.77;100648.00;8691199;33;20251;-75
2022/05/15 14:58:40;;;;;;;1999.90;999.90;;;;;;;28.02;24.94;100648.53;8724846;33;20153;-75
2022/05/15 15:03:45;;;;;;;1999.90;999.90;;;;;;;28.41;25.61;100640.75;8726474;33;20517;-75
2022/05/15 15:08:48;;;;;;;1999.90;999.90;;;;;;;28.40;26.41;100639.91;8715557;33;20151;-75
2022/05/15 15:13:54;;;;;;;1999.90;999.90;;;;;;;28.74;25.37;100625.56;8691265;33;20444;-74
2022/05/15 15:18:59;;;;;;;1999.90;999.90;;;;;;;28.86;24.79;100626.44;8690468;33;20161;-75
2022/05/15 15:24:02;;;;;;;1999.90;999.90;;;;;;;28.74;24.34;100631.94;8700193;33;20205;-75
2022/05/15 15:29:06;;;;;;;1999.90;999.90;;;;;;;28.61;25.21;100619.19;8714269;33;20152;-75
2022/05/15 15:34:13;;;;;;;1999.90;999.90;;;;;;;29.00;25.56;100604.91;8726216;33;20137;-75
2022/05/15 15:39:16;;;;;;;1999.90;999.90;;;;;;;28.69;24.72;100602.25;8713817;33;20193;-75
2022/05/15 15:44:19;;;;;;;1999.90;999.90;;;;;;;28.53;26.59;100596.59;8696760;33;20675;-74
2022/05/15 15:49:24;;;;;;;1999.90;999.90;;;;;;;28.16;26.37;100594.81;8700104;33;20156;-73
2022/05/15 15:54:27;;;;;;;1999.90;999.90;;;;;;;27.61;26.85;100590.25;8710136;33;20160;-75
2022/05/15 15:59:30;;;;;;;1999.90;999.90;;;;;;;27.10;26.92;100585.16;8694356;33;20222;-75
2022/05/15 16:04:35;;;;;;;1999.90;999.90;;;;;;;27.63;26.29;100583.69;8716226;33;20238;-74
2022/05/15 16:09:38;;;;;;;1999.90;999.90;;;;;;;28.53;26.75;100580.03;8704876;33;20152;-75
2022/05/15 16:14:41;;;;;;;1999.90;999.90;;;;;;;28.32;25.61;100575.88;8695070;33;20157;-73
2022/05/15 16:19:45;;;;;;;1999.90;999.90;;;;;;;28.57;25.63;100575.69;8705325;33;20216;-74
2022/05/15 16:24:51;;;;;;;1999.90;999.90;;;;;;;29.40;24.96;100562.63;8725234;33;20792;-74
2022/05/15 16:29:58;;;;;;;1999.90;999.90;;;;;;;29.19;24.82;100561.38;8694364;33;20646;-75
2022/05/15 16:35:03;;;;;;;1999.90;999.90;;;;;;;27.91;27.23;100560.97;8730720;33;21048;-74
2022/05/15 16:40:09;;;;;;;1999.90;999.90;;;;;;;27.70;26.64;100554.94;8749533;33;20688;-75
2022/05/15 16:45:16;;;;;;;1999.90;999.90;;;;;;;28.91;24.96;100544.44;8744333;33;20148;-73
2022/05/15 16:50:23;;;;;;;1999.90;999.90;;;;;;;29.95;24.26;100540.78;8732150;33;20433;-74
2022/05/15 16:55:31;;;;;;;1999.90;999.90;;;;;;;32.51;22.39;100534.94;8722265;33;20156;-74
2022/05/15 17:00:34;;;;;;;1999.90;999.90;;;;;;;34.66;20.81;100536.41;8694880;33;20156;-74
2022/05/15 17:05:39;;;;;;;1999.90;999.90;;;;;;;34.43;21.44;100537.84;8698382;33;20457;-74
2022/05/15 17:10:43;;;;;;;1999.90;999.90;;;;;;;35.06;20.66;100529.91;8700601;33;20652;-73
2022/05/15 17:15:46;;;;;;;1999.90;999.90;;;;;;;33.64;21.69;100531.63;8709551;33;20145;-74
2022/05/15 17:20:55;;;;;;;1999.90;999.90;;;;;;;32.74;22.28;100534.53;8720643;33;20156;-74
2022/05/15 17:25:58;;;;;;;1999.90;999.90;;;;;;;32.27;23.35;100532.53;8693101;33;20164;-74
2022/05/15 17:36:23;;;;;;;1999.90;999.90;;;;;;;31.27;24.57;100523.72;8736162;33;20620;-74
2022/05/15 17:41:26;;;;;;;1999.90;999.90;;;;;;;30.86;25.25;100523.16;8717557;33;20140;-74
2022/05/15 17:46:30;;;;;;;1999.90;999.90;;;;;;;30.44;25.70;100518.03;8725919;33;20718;-73
2022/05/15 17:51:34;;;;;;;1999.90;999.90;;;;;;;28.89;28.04;100516.19;8728899;33;20155;-74
2022/05/15 17:56:38;;;;;;;1999.90;999.90;;;;;;;26.71;30.55;100521.06;8738290;33;20999;-74
2022/05/15 18:01:44;;;;;;;1999.90;999.90;;;;;;;24.56;33.99;100518.88;8747480;33;20625;-73
2022/05/15 18:06:48;;;;;;;1999.90;999.90;;;;;;;23.70;35.45;100521.53;8740434;33;20242;-73
2022/05/15 18:11:52;;;;;;;1999.90;999.90;;;;;;;22.94;36.66;100523.31;8730122;33;20345;-73
2022/05/15 18:16:55;;;;;;;1999.90;999.90;;;;;;;22.50;38.13;100527.25;8717777;33;20995;-73
2022/05/15 18:21:59;;;;;;;1999.90;999.90;;;;;;;22.31;39.00;100526.03;8707542;33;20618;-74
2022/05/15 18:27:03;;;;;;;1999.90;999.90;;;;;;;22.01;39.22;100525.34;8696520;33;20156;-73
2022/05/15 18:32:07;;;;;;;1999.90;999.90;;;;;;;21.58;39.72;100538.09;8698725;33;20519;-73
2022/05/15 18:37:12;;;;;;;1999.90;999.90;;;;;;;21.38;40.57;100533.25;8709929;33;20177;-71
2022/05/15 18:42:16;;;;;;;1999.90;999.90;;;;;;;21.25;40.74;100534.97;8720680;33;20147;-73
2022/05/15 18:47:20;;;;;;;1999.90;999.90;;;;;;;20.94;41.53;100533.28;8694189;33;20157;-73
2022/05/15 18:57:45;;;;;;;1999.90;999.90;;;;;;;20.62;42.00;100531.78;8742897;33;20151;-72
2022/05/15 19:02:50;;;;;;;1999.90;999.90;;;;;;;20.44;42.15;100530.25;8738923;33;20711;-73
2022/05/15 19:07:54;;;;;;;1999.90;999.90;;;;;;;20.19;42.76;100515.13;8722107;33;20145;-74
2022/05/15 19:12:58;;;;;;;1999.90;999.90;;;;;;;19.94;43.08;100522.63;8746599;33;20985;-73
2022/05/15 19:18:01;;;;;;;1999.90;999.90;;;;;;;19.82;43.37;100528.50;8742171;33;20294;-74
2022/05/15 19:23:11;;;;;;;1999.90;999.90;;;;;;;19.63;43.57;100523.53;8730498;33;20152;-72
2022/05/15 19:28:15;;;;;;;1999.90;999.90;;;;;;;19.50;43.47;100525.97;8744341;33;20337;-73
2022/05/15 19:33:18;;;;;;;1999.90;999.90;;;;;;;19.36;43.70;100527.59;8744723;33;20232;-74
2022/05/15 19:38:23;;;;;;;1999.90;999.90;;;;;;;19.20;43.73;100525.81;8746149;33;20831;-73
2022/05/15 19:43:26;;;;;;;1999.90;999.90;;;;;;;19.17;43.68;100534.31;8749460;33;20470;-73
2022/05/15 19:48:32;;;;;;;1999.90;999.90;;;;;;;19.02;43.63;100526.91;8734198;33;20598;-73
2022/05/15 19:53:40;;;;;;;1999.90;999.90;;;;;;;18.87;43.69;100519.63;8732524;33;20238;-74
2022/05/15 19:58:43;;;;;;;1999.90;999.90;;;;;;;18.77;43.82;100533.44;8746948;33;20508;-72
2022/05/15 20:03:46;;;;;;;1999.90;999.90;;;;;;;18.76;43.86;100537.19;8749071;33;20567;-72
2022/05/15 20:14:13;;;;;;;1999.90;999.90;;;;;;;18.47;44.11;100530.41;8742929;33;20156;-72
2022/05/15 20:19:16;;;;;;;1999.90;999.90;;;;;;;18.36;44.46;100533.50;8732826;33;20271;-72
2022/05/15 20:24:20;;;;;;;1999.90;999.90;;;;;;;18.23;44.48;100538.59;8745980;33;20715;-72
2022/05/15 20:29:23;;;;;;;1999.90;999.90;;;;;;;18.13;44.48;100536.06;8748331;33;20700;-72
2022/05/15 20:34:29;;;;;;;1999.90;999.90;;;;;;;18.19;44.83;100545.41;8715955;33;20140;-72
2022/05/15 20:39:34;;;;;;;1999.90;999.90;;;;;;;18.18;44.70;100546.41;8735818;33;20236;-72
2022/05/15 20:44:37;;;;;;;1999.90;999.90;;;;;;;18.06;45.22;100544.03;8731942;33;20668;-72
2022/05/15 20:49:40;;;;;;;1999.90;999.90;;;;;;;17.88;45.89;100536.03;8693744;33;20310;-72
2022/05/15 20:54:44;;;;;;;1999.90;999.90;;;;;;;17.79;46.12;100539.75;8716526;33;20282;-72
2022/05/15 20:59:48;;;;;;;1999.90;999.90;;;;;;;17.77;46.34;100540.94;8726848;33;20152;-72
2022/05/15 21:04:51;;;;;;;1999.90;999.90;;;;;;;17.65;46.61;100545.84;8736167;33;20160;-72
2022/05/15 21:09:55;;;;;;;1999.90;999.90;;;;;;;17.56;46.87;100541.41;8696218;33;20630;-72
2022/05/15 21:14:58;;;;;;;1999.90;999.90;;;;;;;17.45;47.52;100542.56;8700165;33;20188;-72
2022/05/15 21:20:01;;;;;;;1999.90;999.90;;;;;;;17.50;47.51;100536.63;8711816;33;20751;-73
2022/05/15 21:25:10;;;;;;;1999.90;999.90;;;;;;;17.47;47.71;100533.25;8723373;33;20528;-72
2022/05/15 21:30:13;;;;;;;1999.90;999.90;;;;;;;17.29;47.82;100534.38;8692952;33;20164;-72
2022/05/15 21:35:18;;;;;;;1999.90;999.90;;;;;;;17.14;48.47;100535.00;8733429;33;21027;-72
2022/05/15 21:45:43;;;;;;;1999.90;999.90;;;;;;;16.89;49.38;100536.69;8740162;33;20593;-72
2022/05/15 21:50:46;;;;;;;1999.90;999.90;;;;;;;16.81;49.33;100532.13;8745459;33;20545;-72
2022/05/15 21:55:51;;;;;;;1999.90;999.90;;;;;;;16.70;50.04;100529.69;8739659;33;20155;-72
2022/05/15 22:00:56;;;;;;;1999.90;999.90;;;;;;;16.66;50.06;100535.56;8739288;33;20790;-72
2022/05/15 22:06:03;;;;;;;1999.90;999.90;;;;;;;16.63;50.31;100542.16;8725962;33;20156;-72
2022/05/15 22:11:11;;;;;;;1999.90;999.90;;;;;;;16.57;50.49;100543.66;8723076;33;20250;-72
2022/05/15 22:16:14;;;;;;;1999.90;999.90;;;;;;;16.48;50.72;100547.34;8691460;33;20145;-72
2022/05/15 22:21:17;;;;;;;1999.90;999.90;;;;;;;16.49;50.62;100548.19;8725975;33;20183;-72
2022/05/15 22:26:26;;;;;;;1999.90;999.90;;;;;;;16.45;50.95;100547.63;8717526;33;20147;-72
2022/05/15 22:31:30;;;;;;;1999.90;999.90;;;;;;;16.40;50.79;100552.69;8746918;33;20155;-72
2022/05/15 22:36:34;;;;;;;1999.90;999.90;;;;;;;16.39;50.99;100544.72;8723515;33;20155;-72
2022/05/15 22:41:38;;;;;;;1999.90;999.90;;;;;;;16.39;51.24;100544.72;8733285;33;20292;-72
2022/05/15 22:46:42;;;;;;;1999.90;999.90;;;;;;;16.29;51.04;100550.22;8722244;33;20578;-72
2022/05/15 22:51:45;;;;;;;1999.90;999.90;;;;;;;16.26;51.22;100561.38;8695830;33;20707;-72
2022/05/15 22:56:50;;;;;;;1999.90;999.90;;;;;;;16.26;51.19;100566.78;8745130;33;20144;-72
2022/05/15 23:01:53;;;;;;;1999.90;999.90;;;;;;;16.26;51.33;100566.78;8742523;33;20156;-72
2022/05/15 23:12:21;;;;;;;1999.90;999.90;;;;;;;16.13;51.87;100559.91;8703652;33;20263;-72
2022/05/15 23:17:24;;;;;;;1999.90;999.90;;;;;;;16.12;51.86;100560.88;8723828;33;20145;-72
2022/05/15 23:22:27;;;;;;;1999.90;999.90;;;;;;;16.09;51.89;100550.38;8702899;33;20247;-72
2022/05/15 23:27:31;;;;;;;1999.90;999.90;;;;;;;15.91;52.44;100549.56;8698533;33;20434;-72